createdAt,value
2018-03-16T00:00:40.036Z,81.29
2018-03-16T00:03:07.500Z,81.46
2018-03-16T00:05:34.952Z,81.43
2018-03-16T00:08:03.069Z,81.71
2018-03-16T00:10:30.864Z,81.52
2018-03-16T00:12:58.339Z,81.71
2018-03-16T00:15:25.824Z,81.55
2018-03-16T00:17:53.303Z,81.67
2018-03-16T00:20:20.788Z,81.65
2018-03-16T00:22:48.262Z,81.28
2018-03-16T00:25:15.727Z,81.20
2018-03-16T00:27:43.203Z,81.71
2018-03-16T00:30:10.696Z,81.59
2018-03-16T00:32:38.276Z,81.93
2018-03-16T00:35:05.719Z,81.77
2018-03-16T00:37:33.186Z,81.72
2018-03-16T00:40:00.670Z,81.68
2018-03-16T00:42:29.524Z,82.03
2018-03-16T00:44:57.028Z,82.07
2018-03-16T00:47:24.483Z,81.75
2018-03-16T00:49:51.977Z,81.54
2018-03-16T00:52:19.477Z,81.75
2018-03-16T00:54:47.262Z,81.70
2018-03-16T00:57:14.779Z,81.58
2018-03-16T00:59:42.257Z,81.87
2018-03-16T01:02:09.762Z,81.66
2018-03-16T01:04:37.222Z,81.60
2018-03-16T01:07:04.683Z,81.80
2018-03-16T01:09:32.236Z,81.36
2018-03-16T01:11:59.716Z,81.37
2018-03-16T01:14:27.321Z,81.52
2018-03-16T01:16:54.792Z,81.57
2018-03-16T01:19:22.279Z,81.24
2018-03-16T01:21:49.746Z,81.38
2018-03-16T01:24:17.224Z,81.05
2018-03-16T01:26:44.696Z,81.08
2018-03-16T01:29:12.140Z,80.89
2018-03-16T01:31:39.611Z,80.74
2018-03-16T01:34:07.083Z,80.69
2018-03-16T01:36:34.543Z,80.73
2018-03-16T01:39:02.152Z,80.87
2018-03-16T01:41:29.636Z,80.82
2018-03-16T01:43:57.111Z,80.44
2018-03-16T01:46:24.584Z,80.54
2018-03-16T01:48:52.042Z,80.80
2018-03-16T01:51:19.502Z,80.96
2018-03-16T01:53:46.966Z,81.23
2018-03-16T01:56:14.475Z,81.33
2018-03-16T01:58:41.959Z,80.72
2018-03-16T02:01:09.449Z,80.61
2018-03-16T02:03:36.920Z,80.70
2018-03-16T02:06:04.435Z,80.87
2018-03-16T02:08:32.034Z,80.31
2018-03-16T02:10:59.501Z,80.28
2018-03-16T02:13:26.997Z,80.40
2018-03-16T02:15:54.464Z,80.16
2018-03-16T02:18:21.923Z,80.19
2018-03-16T02:20:49.395Z,80.50
2018-03-16T02:23:16.872Z,80.63
2018-03-16T02:25:44.324Z,80.87
2018-03-16T02:28:11.785Z,80.48
2018-03-16T02:30:39.247Z,80.69
2018-03-16T02:33:06.731Z,80.85
2018-03-16T02:35:34.217Z,80.66
2018-03-16T02:38:01.685Z,80.86
2018-03-16T02:40:29.207Z,81.03
2018-03-16T02:42:56.669Z,80.62
2018-03-16T02:45:24.183Z,80.74
2018-03-16T02:47:51.709Z,80.90
2018-03-16T02:50:19.098Z,81.19
2018-03-16T02:52:46.570Z,81.40
2018-03-16T02:55:14.042Z,81.93
2018-03-16T02:57:41.503Z,82.00
2018-03-16T03:00:09.019Z,82.12
2018-03-16T03:02:36.514Z,82.40
2018-03-16T03:05:04.026Z,82.96
2018-03-16T03:07:31.488Z,83.04
2018-03-16T03:09:58.979Z,83.23
2018-03-16T03:12:26.693Z,83.63
2018-03-16T03:14:54.209Z,83.79
2018-03-16T03:17:21.715Z,83.84
2018-03-16T03:19:49.180Z,84.06
2018-03-16T03:22:17.083Z,83.84
2018-03-16T03:24:44.884Z,83.71
2018-03-16T03:27:12.336Z,84.21
2018-03-16T03:29:39.804Z,84.50
2018-03-16T03:32:07.277Z,84.39
2018-03-16T03:34:34.758Z,84.55
2018-03-16T03:37:02.271Z,85.23
2018-03-16T03:39:29.728Z,85.18
2018-03-16T03:41:57.204Z,85.64
2018-03-16T03:44:24.667Z,85.60
2018-03-16T03:46:52.166Z,85.72
2018-03-16T03:49:19.649Z,85.76
2018-03-16T03:51:47.117Z,86.17
2018-03-16T03:54:14.600Z,86.98
2018-03-16T03:56:42.079Z,87.43
2018-03-16T03:59:09.564Z,87.56
2018-03-16T04:01:37.032Z,87.67
2018-03-16T04:04:04.487Z,87.84
2018-03-16T04:06:32.051Z,88.28
2018-03-16T04:08:59.529Z,88.30
2018-03-16T04:11:26.995Z,88.45
2018-03-16T04:13:54.490Z,88.21
2018-03-16T04:16:21.968Z,88.14
2018-03-16T04:18:49.584Z,88.25
2018-03-16T04:21:17.102Z,88.23
2018-03-16T04:23:44.587Z,88.46
2018-03-16T04:26:12.071Z,88.72
2018-03-16T04:28:39.536Z,88.79
2018-03-16T04:31:07.035Z,88.89
2018-03-16T04:33:34.476Z,88.83
2018-03-16T04:36:01.933Z,88.77
2018-03-16T04:38:29.443Z,88.89
2018-03-16T04:40:56.907Z,89.31
2018-03-16T04:43:24.432Z,89.39
2018-03-16T04:45:51.888Z,89.26
2018-03-16T04:48:19.343Z,89.32
2018-03-16T04:50:46.875Z,89.35
2018-03-16T04:53:14.346Z,89.63
2018-03-16T04:55:41.801Z,89.71
2018-03-16T04:58:09.272Z,89.74
2018-03-16T05:00:36.744Z,89.83
2018-03-16T05:03:04.257Z,89.80
2018-03-16T05:05:31.744Z,89.82
2018-03-16T05:07:59.205Z,90.03
2018-03-16T05:10:26.680Z,90.12
2018-03-16T05:12:54.133Z,90.29
2018-03-16T05:15:21.586Z,90.45
2018-03-16T05:17:49.052Z,90.67
2018-03-16T05:20:17.363Z,90.75
2018-03-16T05:22:44.836Z,90.77
2018-03-16T05:25:12.311Z,90.97
2018-03-16T05:27:39.768Z,91.14
2018-03-16T05:30:07.297Z,91.23
2018-03-16T05:32:34.778Z,91.00
2018-03-16T05:35:02.255Z,90.67
2018-03-16T05:37:29.741Z,90.72
2018-03-16T05:39:57.198Z,90.70
2018-03-16T05:42:24.797Z,90.61
2018-03-16T05:44:52.280Z,90.79
2018-03-16T05:47:19.767Z,90.93
2018-03-16T05:49:47.227Z,91.06
2018-03-16T05:52:14.724Z,91.28
2018-03-16T05:54:42.272Z,91.40
2018-03-16T05:57:09.737Z,91.42
2018-03-16T05:59:37.188Z,91.37
2018-03-16T06:02:04.673Z,90.95
2018-03-16T06:04:32.413Z,90.57
2018-03-16T06:06:59.909Z,90.47
2018-03-16T06:09:28.931Z,90.44
2018-03-16T06:11:56.427Z,90.35
2018-03-16T06:14:23.920Z,90.33
2018-03-16T06:16:51.395Z,90.20
2018-03-16T06:19:18.866Z,90.24
2018-03-16T06:21:46.376Z,90.13
2018-03-16T06:24:13.853Z,89.99
2018-03-16T06:26:41.321Z,90.19
2018-03-16T06:29:08.853Z,89.91
2018-03-16T06:31:36.298Z,89.96
2018-03-16T06:34:03.825Z,89.63
2018-03-16T06:36:31.332Z,89.33
2018-03-16T06:38:59.557Z,89.37
2018-03-16T06:41:27.018Z,89.51
2018-03-16T06:43:54.492Z,89.45
2018-03-16T06:46:21.960Z,89.51
2018-03-16T06:48:49.453Z,89.65
2018-03-16T06:51:17.098Z,89.69
2018-03-16T06:53:44.685Z,89.74
2018-03-16T06:56:12.235Z,89.30
2018-03-16T06:58:39.717Z,89.52
2018-03-16T07:01:07.253Z,89.38
2018-03-16T07:03:34.763Z,89.40
2018-03-16T07:06:02.220Z,89.54
2018-03-16T07:08:30.595Z,89.75
2018-03-16T07:10:58.036Z,89.93
2018-03-16T07:13:25.497Z,90.04
2018-03-16T07:15:52.979Z,89.78
2018-03-16T07:18:20.436Z,89.59
2018-03-16T07:20:47.898Z,89.56
2018-03-16T07:23:15.380Z,89.40
2018-03-16T07:25:42.854Z,89.41
2018-03-16T07:28:10.329Z,89.29
2018-03-16T07:30:38.859Z,88.95
2018-03-16T07:33:06.339Z,88.42
2018-03-16T07:35:33.807Z,88.20
2018-03-16T07:38:01.456Z,88.02
2018-03-16T07:40:29.082Z,87.80
2018-03-16T07:42:56.735Z,87.84
2018-03-16T07:45:29.848Z,87.82
2018-03-16T07:47:57.303Z,87.97
2018-03-16T07:50:24.757Z,87.97
2018-03-16T07:52:52.260Z,87.94
2018-03-16T07:55:19.731Z,88.33
2018-03-16T07:57:47.199Z,88.17
2018-03-16T08:00:14.692Z,88.17
2018-03-16T08:02:42.171Z,87.43
2018-03-16T08:05:09.658Z,87.66
2018-03-16T08:07:37.108Z,87.92
2018-03-16T08:10:04.621Z,87.54
2018-03-16T08:12:32.132Z,87.56
2018-03-16T08:14:59.639Z,87.50
2018-03-16T08:17:27.134Z,87.55
2018-03-16T08:19:54.621Z,87.29
2018-03-16T08:22:22.111Z,87.65
2018-03-16T08:24:49.576Z,88.10
2018-03-16T08:27:17.292Z,88.29
2018-03-16T08:29:44.759Z,88.44
2018-03-16T08:32:12.211Z,88.51
2018-03-16T08:34:39.695Z,88.46
2018-03-16T08:37:07.211Z,87.96
2018-03-16T08:39:35.130Z,87.79
2018-03-16T08:42:03.232Z,87.60
2018-03-16T08:44:31.098Z,87.81
2018-03-16T08:46:58.761Z,87.78
2018-03-16T08:49:26.596Z,87.22
2018-03-16T08:51:54.181Z,86.40
2018-03-16T08:54:21.700Z,85.94
2018-03-16T08:56:49.185Z,85.56
2018-03-16T08:59:16.658Z,85.89
2018-03-16T09:01:44.178Z,86.07
2018-03-16T09:04:11.633Z,85.94
2018-03-16T09:06:39.116Z,86.03
2018-03-16T09:09:06.596Z,85.99
2018-03-16T09:11:34.080Z,85.83
2018-03-16T09:14:01.565Z,86.05
2018-03-16T09:16:29.048Z,85.43
2018-03-16T09:18:56.510Z,85.26
2018-03-16T09:21:23.964Z,84.97
2018-03-16T09:23:51.467Z,85.08
2018-03-16T09:26:18.936Z,85.58
2018-03-16T09:28:46.448Z,86.62
2018-03-16T09:31:13.896Z,87.27
2018-03-16T09:33:41.455Z,87.71
2018-03-16T09:36:08.970Z,88.28
2018-03-16T09:38:36.894Z,88.41
2018-03-16T09:41:04.416Z,88.73
2018-03-16T09:43:31.884Z,88.05
2018-03-16T09:45:59.364Z,87.82
2018-03-16T09:48:26.932Z,87.21
2018-03-16T09:50:54.474Z,87.10
2018-03-16T09:53:30.326Z,87.38
2018-03-16T09:55:57.815Z,87.27
2018-03-16T09:58:25.326Z,86.90
2018-03-16T10:00:52.829Z,86.28
2018-03-16T10:03:20.293Z,85.89
2018-03-16T10:05:47.780Z,85.79
2018-03-16T10:08:15.329Z,85.31
2018-03-16T10:10:42.804Z,84.71
2018-03-16T10:13:10.738Z,85.07
2018-03-16T10:15:38.225Z,84.58
2018-03-16T10:18:05.807Z,84.58
2018-03-16T10:20:33.275Z,84.83
2018-03-16T10:23:00.799Z,84.71
2018-03-16T10:25:28.339Z,85.13
2018-03-16T10:27:55.810Z,85.62
2018-03-16T10:30:23.887Z,85.14
2018-03-16T10:32:51.370Z,83.82
2018-03-16T10:35:18.847Z,84.37
2018-03-16T10:37:46.333Z,83.49
2018-03-16T10:40:14.053Z,83.31
2018-03-16T10:42:41.547Z,83.55
2018-03-16T10:45:09.041Z,83.09
2018-03-16T10:47:36.511Z,82.02
2018-03-16T10:50:04.030Z,81.59
2018-03-16T10:52:31.686Z,81.37
2018-03-16T10:54:59.257Z,81.36
2018-03-16T10:57:26.750Z,80.22
2018-03-16T10:59:54.213Z,79.57
2018-03-16T11:02:21.688Z,78.15
2018-03-16T11:04:54.641Z,77.57
2018-03-16T11:07:22.128Z,77.65
2018-03-16T11:09:49.590Z,77.63
2018-03-16T11:12:17.169Z,77.30
2018-03-16T11:14:44.718Z,77.25
2018-03-16T11:17:12.386Z,77.57
2018-03-16T11:19:39.921Z,77.59
2018-03-16T11:22:07.385Z,78.10
2018-03-16T11:24:34.882Z,78.63
2018-03-16T11:27:02.407Z,79.14
2018-03-16T11:29:29.901Z,79.02
2018-03-16T11:31:57.375Z,78.98
2018-03-16T11:34:24.864Z,79.06
2018-03-16T11:36:52.411Z,78.61
2018-03-16T11:39:19.953Z,78.69
2018-03-16T11:41:47.472Z,77.83
2018-03-16T11:44:15.149Z,78.08
2018-03-16T11:46:42.753Z,77.65
2018-03-16T11:49:10.262Z,77.77
2018-03-16T11:51:37.730Z,77.69
2018-03-16T11:54:05.252Z,78.20
2018-03-16T11:56:32.880Z,78.12
2018-03-16T11:59:00.368Z,77.86
2018-03-16T12:01:27.856Z,77.95
2018-03-16T12:03:55.332Z,77.61
2018-03-16T12:06:22.939Z,77.62
2018-03-16T12:08:50.449Z,77.43
2018-03-16T12:11:17.955Z,77.35
2018-03-16T12:13:45.501Z,77.23
2018-03-16T12:16:12.981Z,77.15
2018-03-16T12:18:40.480Z,77.10
2018-03-16T12:21:08.058Z,77.90
2018-03-16T12:23:35.528Z,78.29
2018-03-16T12:26:03.102Z,78.57
2018-03-16T12:28:49.341Z,79.16
2018-03-16T12:30:58.157Z,79.06
2018-03-16T12:33:25.682Z,79.54
2018-03-16T12:35:53.173Z,80.16
2018-03-16T12:38:20.651Z,80.10
2018-03-16T12:40:48.155Z,80.65
2018-03-16T12:43:21.163Z,79.90
2018-03-16T12:45:48.647Z,79.61
2018-03-16T12:48:16.185Z,79.54
2018-03-16T12:50:43.686Z,77.81
2018-03-16T12:53:11.156Z,75.99
2018-03-16T12:55:39.536Z,74.78
2018-03-16T12:58:07.020Z,72.80
2018-03-16T13:00:34.509Z,71.41
2018-03-16T13:03:02.173Z,70.87
2018-03-16T13:05:29.652Z,69.78
2018-03-16T13:07:57.148Z,70.22
2018-03-16T13:10:24.631Z,70.55
2018-03-16T13:12:52.092Z,70.33
2018-03-16T13:15:19.643Z,70.24
2018-03-16T13:17:47.526Z,70.53
2018-03-16T13:20:15.064Z,69.92
2018-03-16T13:22:42.530Z,67.68
2018-03-16T13:25:10.114Z,67.20
2018-03-16T13:27:37.622Z,66.20
2018-03-16T13:30:05.124Z,67.12
2018-03-16T13:32:32.886Z,68.25
2018-03-16T13:35:00.353Z,69.14
2018-03-16T13:37:27.806Z,68.96
2018-03-16T13:39:55.307Z,69.12
2018-03-16T13:42:22.816Z,69.81
2018-03-16T13:44:50.373Z,68.49
2018-03-16T13:47:17.908Z,69.55
2018-03-16T13:49:45.366Z,70.07
2018-03-16T13:52:12.936Z,69.99
2018-03-16T13:54:41.333Z,70.03
2018-03-16T13:57:08.824Z,70.09
2018-03-16T13:59:36.326Z,70.86
2018-03-16T14:02:03.836Z,71.62
2018-03-16T14:04:31.310Z,71.33
2018-03-16T14:06:58.799Z,71.67
2018-03-16T14:09:26.290Z,71.39
2018-03-16T14:11:53.823Z,71.40
2018-03-16T14:14:21.309Z,71.43
2018-03-16T14:16:48.883Z,71.20
2018-03-16T14:19:16.384Z,71.14
2018-03-16T14:21:43.894Z,71.47
2018-03-16T14:24:11.386Z,71.17
2018-03-16T14:26:38.905Z,71.45
2018-03-16T14:29:06.448Z,70.90
2018-03-16T14:31:33.916Z,71.02
2018-03-16T14:34:01.384Z,70.92
2018-03-16T14:36:29.519Z,70.20
2018-03-16T14:38:57.009Z,70.64
2018-03-16T14:41:24.544Z,70.80
2018-03-16T14:43:52.000Z,69.96
2018-03-16T14:46:19.471Z,69.16
2018-03-16T14:48:47.020Z,68.70
2018-03-16T14:51:15.057Z,69.54
2018-03-16T14:53:42.839Z,68.22
2018-03-16T14:56:10.335Z,68.81
2018-03-16T14:58:37.848Z,68.68
2018-03-16T15:01:05.385Z,68.23
2018-03-16T15:03:32.897Z,68.39
2018-03-16T15:06:00.430Z,68.54
2018-03-16T15:08:27.926Z,68.63
2018-03-16T15:10:55.401Z,68.16
2018-03-16T15:13:22.898Z,68.30
2018-03-16T15:15:50.450Z,68.66
2018-03-16T15:18:17.898Z,68.05
2018-03-16T15:20:45.380Z,68.03
2018-03-16T15:23:12.894Z,68.02
2018-03-16T15:25:40.389Z,67.94
2018-03-16T15:28:07.886Z,67.98
2018-03-16T15:30:35.389Z,67.93
2018-03-16T15:33:02.906Z,67.36
2018-03-16T15:35:30.390Z,66.76
2018-03-16T15:37:57.901Z,66.79
2018-03-16T15:40:25.372Z,66.61
2018-03-16T15:42:52.840Z,65.29
2018-03-16T15:45:20.319Z,63.24
2018-03-16T15:47:47.809Z,59.55
2018-03-16T15:50:15.317Z,57.57
2018-03-16T15:52:42.919Z,56.83
2018-03-16T15:55:10.453Z,56.12
2018-03-16T15:57:37.978Z,57.20
2018-03-16T16:00:05.547Z,57.35
2018-03-16T16:02:33.959Z,58.40
2018-03-16T16:05:01.455Z,60.92
2018-03-16T16:07:28.933Z,61.91
2018-03-16T16:09:56.424Z,62.94
2018-03-16T16:12:24.228Z,63.30
2018-03-16T16:14:51.720Z,63.94
2018-03-16T16:17:19.219Z,65.04
2018-03-16T16:19:46.704Z,65.78
2018-03-16T16:22:14.482Z,66.45
2018-03-16T16:24:42.061Z,66.92
2018-03-16T16:27:09.518Z,67.43
2018-03-16T16:29:37.001Z,67.10
2018-03-16T16:32:04.493Z,67.41
2018-03-16T16:34:34.057Z,67.80
2018-03-16T16:37:01.518Z,68.40
2018-03-16T16:39:29.021Z,68.56
2018-03-16T16:41:56.494Z,69.62
2018-03-16T16:44:23.992Z,71.23
2018-03-16T16:46:51.473Z,73.60
2018-03-16T16:49:18.964Z,74.44
2018-03-16T16:51:46.460Z,74.93
2018-03-16T16:54:13.928Z,75.81
2018-03-16T16:56:41.399Z,77.33
2018-03-16T16:59:08.871Z,77.44
2018-03-16T17:01:36.385Z,77.82
2018-03-16T17:04:03.873Z,77.27
2018-03-16T17:06:31.464Z,77.70
2018-03-16T17:08:58.958Z,78.17
2018-03-16T17:11:26.511Z,78.48
2018-03-16T17:13:53.994Z,78.43
2018-03-16T17:16:21.457Z,78.16
2018-03-16T17:18:48.969Z,78.90
2018-03-16T17:21:16.539Z,79.85
2018-03-16T17:23:44.031Z,80.31
2018-03-16T17:26:11.512Z,80.32
2018-03-16T17:28:40.618Z,80.13
2018-03-16T17:31:08.116Z,79.67
2018-03-16T17:33:35.640Z,79.73
2018-03-16T17:36:03.130Z,79.79
2018-03-16T17:38:31.830Z,79.28
2018-03-16T17:40:59.324Z,78.47
2018-03-16T17:43:26.794Z,77.85
2018-03-16T17:45:54.302Z,78.13
2018-03-16T17:48:21.770Z,77.77
2018-03-16T17:50:49.230Z,78.52
2018-03-16T17:53:16.721Z,78.93
2018-03-16T17:55:44.211Z,78.38
2018-03-16T17:58:11.703Z,78.51
2018-03-16T18:00:39.197Z,78.43
2018-03-16T18:03:06.691Z,76.98
2018-03-16T18:05:34.225Z,75.58
2018-03-16T18:08:01.705Z,75.47
2018-03-16T18:10:30.479Z,76.77
2018-03-16T18:12:57.960Z,76.15
2018-03-16T18:15:25.440Z,76.47
2018-03-16T18:17:53.354Z,74.47
2018-03-16T18:20:20.897Z,75.25
2018-03-16T18:22:48.407Z,76.17
2018-03-16T18:25:15.907Z,75.18
2018-03-16T18:27:43.477Z,75.34
2018-03-16T18:30:11.016Z,74.58
2018-03-16T18:32:41.411Z,74.29
2018-03-16T18:35:08.911Z,74.20
2018-03-16T18:37:37.336Z,74.82
2018-03-16T18:40:04.884Z,73.88
2018-03-16T18:42:32.510Z,75.10
2018-03-16T18:44:59.988Z,76.10
2018-03-16T18:47:27.486Z,76.17
2018-03-16T18:49:55.882Z,75.66
2018-03-16T18:52:23.458Z,75.43
2018-03-16T18:54:50.936Z,74.78
2018-03-16T18:57:20.046Z,74.73
2018-03-16T18:59:47.526Z,73.26
2018-03-16T19:02:15.314Z,72.91
2018-03-16T19:04:42.787Z,74.17
2018-03-16T19:07:10.266Z,74.91
2018-03-16T19:09:37.773Z,75.32
2018-03-16T19:12:05.265Z,75.91
2018-03-16T19:14:33.212Z,75.30
2018-03-16T19:17:00.717Z,75.82
2018-03-16T19:19:28.483Z,76.16
2018-03-16T19:21:56.140Z,76.26
2018-03-16T19:24:28.175Z,76.01
2018-03-16T19:26:55.674Z,75.85
2018-03-16T19:29:23.480Z,75.33
2018-03-16T19:31:51.029Z,74.91
2018-03-16T19:34:18.562Z,75.17
2018-03-16T19:36:48.798Z,74.85
2018-03-16T19:39:16.394Z,74.80
2018-03-16T19:41:43.947Z,74.57
2018-03-16T19:44:11.417Z,74.56
2018-03-16T19:46:38.905Z,74.44
2018-03-16T19:49:06.439Z,74.52
2018-03-16T19:51:33.954Z,73.96
2018-03-16T19:54:01.426Z,74.69
2018-03-16T19:56:28.922Z,75.17
2018-03-16T19:58:56.492Z,74.92
2018-03-16T20:01:23.981Z,75.19
2018-03-16T20:03:51.507Z,76.92
2018-03-16T20:06:19.077Z,77.13
2018-03-16T20:08:46.624Z,78.19
2018-03-16T20:11:14.101Z,78.69
2018-03-16T20:13:41.637Z,79.18
2018-03-16T20:16:09.288Z,79.41
2018-03-16T20:18:36.831Z,79.28
2018-03-16T20:21:04.298Z,79.61
2018-03-16T20:23:31.785Z,80.14
2018-03-16T20:25:59.265Z,80.26
2018-03-16T20:28:26.803Z,80.04
2018-03-16T20:30:54.297Z,78.95
2018-03-16T20:33:21.776Z,78.68
2018-03-16T20:35:49.300Z,79.36
2018-03-16T20:38:16.965Z,78.82
2018-03-16T20:40:44.520Z,77.71
2018-03-16T20:43:12.016Z,78.47
2018-03-16T20:45:39.538Z,78.29
2018-03-16T20:48:07.006Z,79.28
2018-03-16T20:50:34.542Z,79.37
2018-03-16T20:53:02.061Z,78.93
2018-03-16T20:55:29.532Z,79.01
2018-03-16T20:57:57.086Z,79.68
2018-03-16T21:00:24.761Z,79.84
2018-03-16T21:02:52.288Z,80.38
2018-03-16T21:05:19.797Z,80.18
2018-03-16T21:07:47.344Z,80.34
2018-03-16T21:10:15.898Z,80.87
2018-03-16T21:12:44.521Z,80.82
2018-03-16T21:15:12.058Z,81.18
2018-03-16T21:17:39.721Z,81.73
2018-03-16T21:20:07.236Z,81.90
2018-03-16T21:22:34.899Z,82.09
2018-03-16T21:25:02.433Z,82.23
2018-03-16T21:27:30.043Z,82.11
2018-03-16T21:29:57.593Z,82.12
2018-03-16T21:32:25.194Z,82.97
2018-03-16T21:34:52.693Z,83.21
2018-03-16T21:37:20.215Z,83.21
2018-03-16T21:39:47.712Z,83.55
2018-03-16T21:42:15.200Z,83.52
2018-03-16T21:44:42.781Z,83.46
2018-03-16T21:47:10.358Z,83.54
2018-03-16T21:49:37.905Z,83.67
2018-03-16T21:52:05.432Z,84.16
2018-03-16T21:54:33.150Z,83.72
2018-03-16T21:57:00.630Z,83.73
2018-03-16T21:59:28.146Z,84.04
2018-03-16T22:01:55.700Z,83.10
2018-03-16T22:04:23.155Z,82.22
2018-03-16T22:06:50.865Z,82.01
2018-03-16T22:09:22.472Z,81.71
2018-03-16T22:11:50.479Z,82.18
2018-03-16T22:14:18.186Z,82.38
2018-03-16T22:16:45.754Z,82.53
2018-03-16T22:19:13.297Z,83.07
2018-03-16T22:21:40.992Z,83.26
2018-03-16T22:24:08.606Z,83.01
2018-03-16T22:26:36.239Z,82.72
2018-03-16T22:29:03.708Z,81.91
2018-03-16T22:31:31.253Z,81.79
2018-03-16T22:33:58.772Z,82.50
2018-03-16T22:36:26.405Z,82.40
2018-03-16T22:38:53.858Z,82.34
2018-03-16T22:41:21.334Z,81.99
2018-03-16T22:43:48.895Z,80.86
2018-03-16T22:46:16.730Z,81.21
2018-03-16T22:51:19.189Z,80.28
2018-03-16T22:59:25.461Z,81.19
2018-03-16T23:01:55.039Z,80.31
2018-03-16T23:07:03.291Z,81.44
2018-03-16T23:09:32.988Z,82.20
2018-03-16T23:12:00.602Z,82.31
2018-03-16T23:14:36.398Z,82.66
2018-03-16T23:17:04.501Z,82.55
2018-03-16T23:19:32.754Z,82.69
2018-03-16T23:22:01.493Z,82.86
2018-03-16T23:24:31.488Z,83.12
2018-03-16T23:26:59.068Z,83.13
2018-03-16T23:29:26.731Z,83.11
2018-03-16T23:31:54.208Z,83.10
2018-03-16T23:36:53.924Z,83.38
2018-03-16T23:39:23.644Z,83.09
2018-03-16T23:44:25.477Z,83.44
2018-03-16T23:46:53.312Z,83.42
2018-03-16T23:49:22.374Z,83.25
2018-03-16T23:51:50.140Z,82.85
2018-03-16T23:54:17.778Z,82.79
2018-03-16T23:56:46.040Z,82.37
2018-03-16T23:59:14.116Z,82.55
